sensor_id;sensor_type;location;lat;lon;timestamp;P1;durP1;ratioP1;P2;durP2;ratioP2
45296;SDS011;31040;51.622;10.420;2022-10-17T00:00:41;2.72;;;2.17;;
45296;SDS011;31040;51.622;10.420;2022-10-17T00:03:09;2.70;;;2.20;;
45296;SDS011;31040;51.622;10.420;2022-10-17T00:05:43;2.63;;;1.85;;
45296;SDS011;31040;51.622;10.420;2022-10-17T00:08:11;3.22;;;2.13;;
45296;SDS011;31040;51.622;10.420;2022-10-17T00:10:39;3.88;;;2.35;;
45296;SDS011;31040;51.622;10.420;2022-10-17T00:13:07;5.38;;;2.17;;
45296;SDS011;31040;51.622;10.420;2022-10-17T00:15:35;5.75;;;2.60;;
45296;SDS011;31040;51.622;10.420;2022-10-17T00:18:02;5.28;;;2.78;;
45296;SDS011;31040;51.622;10.420;2022-10-17T00:20:30;4.05;;;2.40;;
45296;SDS011;31040;51.622;10.420;2022-10-17T00:22:58;6.47;;;3.33;;
45296;SDS011;31040;51.622;10.420;2022-10-17T00:25:26;4.57;;;2.50;;
45296;SDS011;31040;51.622;10.420;2022-10-17T00:27:53;3.70;;;2.40;;
45296;SDS011;31040;51.622;10.420;2022-10-17T00:30:20;2.90;;;2.35;;
45296;SDS011;31040;51.622;10.420;2022-10-17T00:32:48;3.42;;;2.10;;
45296;SDS011;31040;51.622;10.420;2022-10-17T00:35:15;3.08;;;1.90;;
45296;SDS011;31040;51.622;10.420;2022-10-17T00:37:43;3.13;;;2.63;;
45296;SDS011;31040;51.622;10.420;2022-10-17T00:40:10;2.45;;;2.25;;
45296;SDS011;31040;51.622;10.420;2022-10-17T00:42:38;6.05;;;3.38;;
45296;SDS011;31040;51.622;10.420;2022-10-17T00:45:07;3.67;;;2.28;;
45296;SDS011;31040;51.622;10.420;2022-10-17T00:47:35;3.40;;;2.20;;
45296;SDS011;31040;51.622;10.420;2022-10-17T00:50:03;3.22;;;2.00;;
45296;SDS011;31040;51.622;10.420;2022-10-17T00:52:31;4.57;;;2.15;;
45296;SDS011;31040;51.622;10.420;2022-10-17T00:55:05;4.72;;;2.50;;
45296;SDS011;31040;51.622;10.420;2022-10-17T00:57:35;2.60;;;2.22;;
45296;SDS011;31040;51.622;10.420;2022-10-17T01:00:04;6.10;;;1.83;;
45296;SDS011;31040;51.622;10.420;2022-10-17T01:02:32;6.13;;;2.35;;
45296;SDS011;31040;51.622;10.420;2022-10-17T01:04:59;2.30;;;2.10;;
45296;SDS011;31040;51.622;10.420;2022-10-17T01:07:27;2.58;;;2.25;;
45296;SDS011;31040;51.622;10.420;2022-10-17T01:10:01;5.80;;;2.70;;
45296;SDS011;31040;51.622;10.420;2022-10-17T01:12:38;3.92;;;2.42;;
45296;SDS011;31040;51.622;10.420;2022-10-17T01:28:05;6.25;;;2.90;;
45296;SDS011;31040;51.622;10.420;2022-10-17T01:33:10;4.53;;;2.80;;
45296;SDS011;31040;51.622;10.420;2022-10-17T01:38:13;3.47;;;2.40;;
45296;SDS011;31040;51.622;10.420;2022-10-17T01:41:48;3.92;;;2.30;;
45296;SDS011;31040;51.622;10.420;2022-10-17T01:46:32;8.45;;;2.75;;
45296;SDS011;31040;51.622;10.420;2022-10-17T01:49:01;2.97;;;2.70;;
45296;SDS011;31040;51.622;10.420;2022-10-17T01:51:32;2.83;;;2.33;;
45296;SDS011;31040;51.622;10.420;2022-10-17T01:54:01;4.50;;;2.45;;
45296;SDS011;31040;51.622;10.420;2022-10-17T01:56:30;5.53;;;2.88;;
45296;SDS011;31040;51.622;10.420;2022-10-17T01:59:03;5.95;;;2.63;;
45296;SDS011;31040;51.622;10.420;2022-10-17T02:01:32;2.92;;;2.60;;
45296;SDS011;31040;51.622;10.420;2022-10-17T02:04:02;2.75;;;2.55;;
45296;SDS011;31040;51.622;10.420;2022-10-17T02:06:33;2.60;;;2.40;;
45296;SDS011;31040;51.622;10.420;2022-10-17T02:09:00;5.43;;;2.58;;
45296;SDS011;31040;51.622;10.420;2022-10-17T02:11:28;3.00;;;2.70;;
45296;SDS011;31040;51.622;10.420;2022-10-17T02:19:40;6.25;;;2.72;;
45296;SDS011;31040;51.622;10.420;2022-10-17T02:22:19;4.25;;;2.60;;
45296;SDS011;31040;51.622;10.420;2022-10-17T02:30:06;3.55;;;2.05;;
45296;SDS011;31040;51.622;10.420;2022-10-17T02:32:40;4.18;;;2.15;;
45296;SDS011;31040;51.622;10.420;2022-10-17T02:35:14;1.90;;;1.70;;
45296;SDS011;31040;51.622;10.420;2022-10-17T02:37:43;3.47;;;2.13;;
45296;SDS011;31040;51.622;10.420;2022-10-17T02:40:12;3.55;;;2.00;;
45296;SDS011;31040;51.622;10.420;2022-10-17T02:42:41;4.97;;;2.55;;
45296;SDS011;31040;51.622;10.420;2022-10-17T02:45:10;5.22;;;2.55;;
45296;SDS011;31040;51.622;10.420;2022-10-17T02:47:42;4.55;;;3.28;;
45296;SDS011;31040;51.622;10.420;2022-10-17T02:50:12;6.32;;;3.17;;
45296;SDS011;31040;51.622;10.420;2022-10-17T02:52:43;3.63;;;2.90;;
45296;SDS011;31040;51.622;10.420;2022-10-17T02:57:49;6.57;;;3.20;;
45296;SDS011;31040;51.622;10.420;2022-10-17T03:00:19;3.10;;;2.72;;
45296;SDS011;31040;51.622;10.420;2022-10-17T03:02:48;3.38;;;2.75;;
45296;SDS011;31040;51.622;10.420;2022-10-17T03:05:17;3.72;;;2.78;;
45296;SDS011;31040;51.622;10.420;2022-10-17T03:07:45;4.18;;;2.72;;
45296;SDS011;31040;51.622;10.420;2022-10-17T03:10:13;4.55;;;2.97;;
45296;SDS011;31040;51.622;10.420;2022-10-17T03:12:40;7.15;;;3.13;;
45296;SDS011;31040;51.622;10.420;2022-10-17T03:15:08;3.78;;;2.95;;
45296;SDS011;31040;51.622;10.420;2022-10-17T03:17:35;4.13;;;2.70;;
45296;SDS011;31040;51.622;10.420;2022-10-17T03:20:03;4.15;;;2.75;;
45296;SDS011;31040;51.622;10.420;2022-10-17T03:22:31;5.78;;;3.00;;
45296;SDS011;31040;51.622;10.420;2022-10-17T03:24:59;3.47;;;2.67;;
45296;SDS011;31040;51.622;10.420;2022-10-17T03:27:26;4.18;;;2.78;;
45296;SDS011;31040;51.622;10.420;2022-10-17T03:29:54;6.97;;;3.42;;
45296;SDS011;31040;51.622;10.420;2022-10-17T03:32:21;5.85;;;2.92;;
45296;SDS011;31040;51.622;10.420;2022-10-17T03:34:49;5.20;;;2.92;;
45296;SDS011;31040;51.622;10.420;2022-10-17T03:37:16;3.70;;;2.90;;
45296;SDS011;31040;51.622;10.420;2022-10-17T03:39:44;5.95;;;3.13;;
45296;SDS011;31040;51.622;10.420;2022-10-17T03:42:11;5.50;;;3.33;;
45296;SDS011;31040;51.622;10.420;2022-10-17T03:44:38;4.05;;;3.20;;
45296;SDS011;31040;51.622;10.420;2022-10-17T03:47:06;5.95;;;3.78;;
45296;SDS011;31040;51.622;10.420;2022-10-17T03:49:38;3.25;;;2.95;;
45296;SDS011;31040;51.622;10.420;2022-10-17T03:52:09;5.32;;;2.50;;
45296;SDS011;31040;51.622;10.420;2022-10-17T03:54:37;5.07;;;2.90;;
45296;SDS011;31040;51.622;10.420;2022-10-17T03:57:05;4.07;;;3.05;;
45296;SDS011;31040;51.622;10.420;2022-10-17T03:59:32;4.43;;;3.00;;
45296;SDS011;31040;51.622;10.420;2022-10-17T04:02:00;4.90;;;3.10;;
45296;SDS011;31040;51.622;10.420;2022-10-17T04:04:27;3.00;;;2.80;;
45296;SDS011;31040;51.622;10.420;2022-10-17T04:06:54;5.68;;;3.20;;
45296;SDS011;31040;51.622;10.420;2022-10-17T04:09:22;8.27;;;3.25;;
45296;SDS011;31040;51.622;10.420;2022-10-17T04:11:49;4.53;;;2.80;;
45296;SDS011;31040;51.622;10.420;2022-10-17T04:14:17;4.88;;;3.13;;
45296;SDS011;31040;51.622;10.420;2022-10-17T04:16:44;5.30;;;3.13;;
45296;SDS011;31040;51.622;10.420;2022-10-17T04:19:12;7.80;;;3.30;;
45296;SDS011;31040;51.622;10.420;2022-10-17T04:21:39;3.50;;;3.20;;
45296;SDS011;31040;51.622;10.420;2022-10-17T04:24:08;5.72;;;3.50;;
45296;SDS011;31040;51.622;10.420;2022-10-17T04:26:36;8.52;;;3.60;;
45296;SDS011;31040;51.622;10.420;2022-10-17T04:29:04;3.50;;;2.97;;
45296;SDS011;31040;51.622;10.420;2022-10-17T04:31:31;4.07;;;2.88;;
45296;SDS011;31040;51.622;10.420;2022-10-17T04:33:59;3.50;;;3.15;;
45296;SDS011;31040;51.622;10.420;2022-10-17T04:36:26;4.70;;;3.47;;
45296;SDS011;31040;51.622;10.420;2022-10-17T04:38:53;4.20;;;3.15;;
45296;SDS011;31040;51.622;10.420;2022-10-17T04:41:21;6.03;;;2.90;;
45296;SDS011;31040;51.622;10.420;2022-10-17T04:43:48;3.50;;;3.20;;
45296;SDS011;31040;51.622;10.420;2022-10-17T04:46:16;3.15;;;2.85;;
45296;SDS011;31040;51.622;10.420;2022-10-17T04:48:44;3.47;;;2.80;;
45296;SDS011;31040;51.622;10.420;2022-10-17T04:51:13;4.55;;;2.95;;
45296;SDS011;31040;51.622;10.420;2022-10-17T04:53:41;5.68;;;2.50;;
45296;SDS011;31040;51.622;10.420;2022-10-17T04:56:10;3.20;;;2.80;;
45296;SDS011;31040;51.622;10.420;2022-10-17T04:58:38;6.95;;;2.67;;
45296;SDS011;31040;51.622;10.420;2022-10-17T05:01:15;4.13;;;3.40;;
45296;SDS011;31040;51.622;10.420;2022-10-17T05:03:43;3.03;;;2.78;;
45296;SDS011;31040;51.622;10.420;2022-10-17T05:06:14;3.95;;;3.22;;
45296;SDS011;31040;51.622;10.420;2022-10-17T05:08:42;5.30;;;3.30;;
45296;SDS011;31040;51.622;10.420;2022-10-17T05:13:50;3.95;;;3.42;;
45296;SDS011;31040;51.622;10.420;2022-10-17T05:16:18;3.80;;;3.40;;
45296;SDS011;31040;51.622;10.420;2022-10-17T05:18:49;4.63;;;3.47;;
45296;SDS011;31040;51.622;10.420;2022-10-17T05:21:18;4.38;;;3.13;;
45296;SDS011;31040;51.622;10.420;2022-10-17T05:23:46;5.50;;;3.30;;
45296;SDS011;31040;51.622;10.420;2022-10-17T05:26:16;7.55;;;3.75;;
45296;SDS011;31040;51.622;10.420;2022-10-17T05:28:44;6.07;;;3.88;;
45296;SDS011;31040;51.622;10.420;2022-10-17T05:31:11;5.68;;;3.70;;
45296;SDS011;31040;51.622;10.420;2022-10-17T05:33:39;7.20;;;3.45;;
45296;SDS011;31040;51.622;10.420;2022-10-17T05:36:07;5.85;;;3.53;;
45296;SDS011;31040;51.622;10.420;2022-10-17T05:38:35;8.07;;;3.55;;
45296;SDS011;31040;51.622;10.420;2022-10-17T05:41:03;4.38;;;2.92;;
45296;SDS011;31040;51.622;10.420;2022-10-17T05:43:31;3.92;;;2.90;;
45296;SDS011;31040;51.622;10.420;2022-10-17T05:46:01;4.45;;;3.17;;
45296;SDS011;31040;51.622;10.420;2022-10-17T05:48:29;5.78;;;3.60;;
45296;SDS011;31040;51.622;10.420;2022-10-17T05:51:00;3.10;;;2.80;;
45296;SDS011;31040;51.622;10.420;2022-10-17T05:53:32;5.70;;;3.72;;
45296;SDS011;31040;51.622;10.420;2022-10-17T05:56:01;6.40;;;3.05;;
45296;SDS011;31040;51.622;10.420;2022-10-17T05:58:29;5.15;;;3.45;;
45296;SDS011;31040;51.622;10.420;2022-10-17T06:01:15;4.50;;;3.33;;
45296;SDS011;31040;51.622;10.420;2022-10-17T06:03:42;4.40;;;3.30;;
45296;SDS011;31040;51.622;10.420;2022-10-17T06:06:10;5.22;;;2.90;;
45296;SDS011;31040;51.622;10.420;2022-10-17T06:08:38;3.95;;;2.88;;
45296;SDS011;31040;51.622;10.420;2022-10-17T06:11:05;3.95;;;3.40;;
45296;SDS011;31040;51.622;10.420;2022-10-17T06:13:36;4.55;;;4.10;;
45296;SDS011;31040;51.622;10.420;2022-10-17T06:16:03;4.75;;;4.03;;
45296;SDS011;31040;51.622;10.420;2022-10-17T06:18:31;6.10;;;4.07;;
45296;SDS011;31040;51.622;10.420;2022-10-17T06:21:02;4.40;;;4.00;;
45296;SDS011;31040;51.622;10.420;2022-10-17T06:23:30;5.75;;;3.80;;
45296;SDS011;31040;51.622;10.420;2022-10-17T06:26:02;5.03;;;3.80;;
45296;SDS011;31040;51.622;10.420;2022-10-17T06:28:29;9.02;;;3.92;;
45296;SDS011;31040;51.622;10.420;2022-10-17T06:30:57;9.80;;;4.65;;
45296;SDS011;31040;51.622;10.420;2022-10-17T06:33:24;5.50;;;4.13;;
45296;SDS011;31040;51.622;10.420;2022-10-17T06:35:52;6.28;;;3.88;;
45296;SDS011;31040;51.622;10.420;2022-10-17T06:38:20;6.43;;;4.40;;
45296;SDS011;31040;51.622;10.420;2022-10-17T06:40:48;8.00;;;4.88;;
45296;SDS011;31040;51.622;10.420;2022-10-17T06:43:15;6.88;;;4.55;;
45296;SDS011;31040;51.622;10.420;2022-10-17T06:45:44;5.53;;;4.60;;
45296;SDS011;31040;51.622;10.420;2022-10-17T06:48:12;4.97;;;4.50;;
45296;SDS011;31040;51.622;10.420;2022-10-17T06:50:39;8.18;;;5.25;;
45296;SDS011;31040;51.622;10.420;2022-10-17T06:53:07;6.53;;;5.13;;
45296;SDS011;31040;51.622;10.420;2022-10-17T06:55:34;6.25;;;5.65;;
45296;SDS011;31040;51.622;10.420;2022-10-17T06:58:01;6.53;;;5.45;;
45296;SDS011;31040;51.622;10.420;2022-10-17T07:00:29;5.75;;;4.82;;
45296;SDS011;31040;51.622;10.420;2022-10-17T07:02:56;7.60;;;4.55;;
45296;SDS011;31040;51.622;10.420;2022-10-17T07:05:23;6.93;;;4.28;;
45296;SDS011;31040;51.622;10.420;2022-10-17T07:07:51;4.72;;;4.32;;
45296;SDS011;31040;51.622;10.420;2022-10-17T07:10:18;5.38;;;4.45;;
45296;SDS011;31040;51.622;10.420;2022-10-17T07:12:46;5.95;;;4.10;;
45296;SDS011;31040;51.622;10.420;2022-10-17T07:15:13;7.18;;;5.35;;
45296;SDS011;31040;51.622;10.420;2022-10-17T07:17:40;6.43;;;4.30;;
45296;SDS011;31040;51.622;10.420;2022-10-17T07:20:08;6.93;;;4.72;;
45296;SDS011;31040;51.622;10.420;2022-10-17T07:22:35;7.07;;;4.00;;
45296;SDS011;31040;51.622;10.420;2022-10-17T07:25:03;7.78;;;3.67;;
45296;SDS011;31040;51.622;10.420;2022-10-17T07:27:30;6.88;;;3.92;;
45296;SDS011;31040;51.622;10.420;2022-10-17T07:29:58;5.28;;;3.75;;
45296;SDS011;31040;51.622;10.420;2022-10-17T07:32:25;6.85;;;4.25;;
45296;SDS011;31040;51.622;10.420;2022-10-17T07:34:53;6.57;;;4.15;;
45296;SDS011;31040;51.622;10.420;2022-10-17T07:37:20;4.47;;;4.03;;
45296;SDS011;31040;51.622;10.420;2022-10-17T07:39:47;6.63;;;3.88;;
45296;SDS011;31040;51.622;10.420;2022-10-17T07:42:15;7.70;;;4.00;;
45296;SDS011;31040;51.622;10.420;2022-10-17T07:44:42;6.32;;;3.78;;
45296;SDS011;31040;51.622;10.420;2022-10-17T07:47:12;5.63;;;3.45;;
45296;SDS011;31040;51.622;10.420;2022-10-17T07:49:40;5.22;;;3.40;;
45296;SDS011;31040;51.622;10.420;2022-10-17T07:52:12;4.15;;;3.50;;
45296;SDS011;31040;51.622;10.420;2022-10-17T07:54:40;4.25;;;3.45;;
45296;SDS011;31040;51.622;10.420;2022-10-17T07:57:08;7.03;;;3.33;;
45296;SDS011;31040;51.622;10.420;2022-10-17T07:59:36;3.72;;;3.15;;
45296;SDS011;31040;51.622;10.420;2022-10-17T08:02:03;3.63;;;3.33;;
45296;SDS011;31040;51.622;10.420;2022-10-17T08:04:33;7.97;;;3.67;;
45296;SDS011;31040;51.622;10.420;2022-10-17T08:07:01;3.47;;;2.75;;
45296;SDS011;31040;51.622;10.420;2022-10-17T08:09:45;2.60;;;2.40;;
45296;SDS011;31040;51.622;10.420;2022-10-17T08:12:18;6.53;;;3.13;;
45296;SDS011;31040;51.622;10.420;2022-10-17T08:14:46;6.10;;;3.42;;
45296;SDS011;31040;51.622;10.420;2022-10-17T08:17:13;3.22;;;2.65;;
45296;SDS011;31040;51.622;10.420;2022-10-17T08:19:40;3.33;;;3.00;;
45296;SDS011;31040;51.622;10.420;2022-10-17T08:22:08;3.95;;;2.67;;
45296;SDS011;31040;51.622;10.420;2022-10-17T08:24:35;3.22;;;2.90;;
45296;SDS011;31040;51.622;10.420;2022-10-17T08:27:03;2.90;;;2.17;;
45296;SDS011;31040;51.622;10.420;2022-10-17T08:29:37;3.45;;;2.55;;
45296;SDS011;31040;51.622;10.420;2022-10-17T08:32:04;4.72;;;2.72;;
45296;SDS011;31040;51.622;10.420;2022-10-17T08:34:35;5.88;;;2.85;;
45296;SDS011;31040;51.622;10.420;2022-10-17T08:37:02;6.53;;;3.00;;
45296;SDS011;31040;51.622;10.420;2022-10-17T08:39:29;6.28;;;2.70;;
45296;SDS011;31040;51.622;10.420;2022-10-17T08:46:55;5.10;;;3.22;;
45296;SDS011;31040;51.622;10.420;2022-10-17T08:51:57;6.75;;;2.90;;
45296;SDS011;31040;51.622;10.420;2022-10-17T08:57:02;5.40;;;3.20;;
45296;SDS011;31040;51.622;10.420;2022-10-17T08:59:29;4.47;;;3.08;;
45296;SDS011;31040;51.622;10.420;2022-10-17T09:02:05;5.45;;;2.70;;
45296;SDS011;31040;51.622;10.420;2022-10-17T09:12:15;6.30;;;2.83;;
45296;SDS011;31040;51.622;10.420;2022-10-17T09:20:03;3.05;;;2.72;;
45296;SDS011;31040;51.622;10.420;2022-10-17T09:22:37;4.40;;;3.00;;
45296;SDS011;31040;51.622;10.420;2022-10-17T09:25:08;3.25;;;2.63;;
45296;SDS011;31040;51.622;10.420;2022-10-17T09:32:57;3.58;;;2.65;;
45296;SDS011;31040;51.622;10.420;2022-10-17T09:35:26;5.22;;;2.92;;
45296;SDS011;31040;51.622;10.420;2022-10-17T09:37:55;3.25;;;2.33;;
45296;SDS011;31040;51.622;10.420;2022-10-17T09:40:24;3.45;;;2.60;;
45296;SDS011;31040;51.622;10.420;2022-10-17T09:42:52;4.75;;;2.72;;
45296;SDS011;31040;51.622;10.420;2022-10-17T09:45:20;4.65;;;2.95;;
45296;SDS011;31040;51.622;10.420;2022-10-17T09:47:59;3.15;;;2.75;;
45296;SDS011;31040;51.622;10.420;2022-10-17T09:50:29;4.20;;;2.67;;
45296;SDS011;31040;51.622;10.420;2022-10-17T09:53:01;4.63;;;2.40;;
45296;SDS011;31040;51.622;10.420;2022-10-17T09:55:39;3.45;;;2.63;;
45296;SDS011;31040;51.622;10.420;2022-10-17T09:58:08;3.65;;;2.75;;
45296;SDS011;31040;51.622;10.420;2022-10-17T10:00:39;4.28;;;2.50;;
45296;SDS011;31040;51.622;10.420;2022-10-17T10:03:25;3.03;;;2.67;;
45296;SDS011;31040;51.622;10.420;2022-10-17T10:11:07;4.97;;;2.40;;
45296;SDS011;31040;51.622;10.420;2022-10-17T10:13:39;2.85;;;2.45;;
45296;SDS011;31040;51.622;10.420;2022-10-17T10:16:14;4.80;;;2.83;;
45296;SDS011;31040;51.622;10.420;2022-10-17T10:18:42;3.88;;;2.90;;
45296;SDS011;31040;51.622;10.420;2022-10-17T10:21:16;4.05;;;2.30;;
45296;SDS011;31040;51.622;10.420;2022-10-17T10:24:01;3.85;;;2.58;;
45296;SDS011;31040;51.622;10.420;2022-10-17T10:26:33;3.63;;;2.83;;
45296;SDS011;31040;51.622;10.420;2022-10-17T10:29:06;4.93;;;2.70;;
45296;SDS011;31040;51.622;10.420;2022-10-17T10:31:45;4.50;;;2.88;;
45296;SDS011;31040;51.622;10.420;2022-10-17T10:36:48;3.33;;;2.42;;
45296;SDS011;31040;51.622;10.420;2022-10-17T10:41:53;5.65;;;3.00;;
45296;SDS011;31040;51.622;10.420;2022-10-17T10:44:22;2.92;;;2.42;;
45296;SDS011;31040;51.622;10.420;2022-10-17T10:47:06;4.25;;;2.35;;
45296;SDS011;31040;51.622;10.420;2022-10-17T10:49:34;5.22;;;2.60;;
45296;SDS011;31040;51.622;10.420;2022-10-17T10:52:02;6.40;;;2.45;;
45296;SDS011;31040;51.622;10.420;2022-10-17T10:54:34;4.07;;;2.50;;
45296;SDS011;31040;51.622;10.420;2022-10-17T10:57:04;2.25;;;2.05;;
45296;SDS011;31040;51.622;10.420;2022-10-17T11:04:48;2.83;;;2.38;;
45296;SDS011;31040;51.622;10.420;2022-10-17T11:07:19;4.00;;;2.42;;
45296;SDS011;31040;51.622;10.420;2022-10-17T11:09:59;2.45;;;2.20;;
45296;SDS011;31040;51.622;10.420;2022-10-17T11:12:33;2.67;;;2.17;;
45296;SDS011;31040;51.622;10.420;2022-10-17T11:20:05;4.60;;;2.38;;
45296;SDS011;31040;51.622;10.420;2022-10-17T11:22:46;3.70;;;2.00;;
45296;SDS011;31040;51.622;10.420;2022-10-17T11:25:18;5.25;;;2.40;;
45296;SDS011;31040;51.622;10.420;2022-10-17T11:27:47;4.28;;;2.50;;
45296;SDS011;31040;51.622;10.420;2022-10-17T11:30:15;5.93;;;2.20;;
45296;SDS011;31040;51.622;10.420;2022-10-17T11:32:47;3.40;;;2.08;;
45296;SDS011;31040;51.622;10.420;2022-10-17T11:37:45;2.60;;;1.90;;
45296;SDS011;31040;51.622;10.420;2022-10-17T11:40:36;3.38;;;1.92;;
45296;SDS011;31040;51.622;10.420;2022-10-17T11:43:03;3.17;;;2.30;;
45296;SDS011;31040;51.622;10.420;2022-10-17T11:45:35;5.10;;;2.60;;
45296;SDS011;31040;51.622;10.420;2022-10-17T11:48:06;3.63;;;2.08;;
45296;SDS011;31040;51.622;10.420;2022-10-17T11:50:37;3.15;;;2.00;;
45296;SDS011;31040;51.622;10.420;2022-10-17T11:53:26;3.60;;;2.13;;
45296;SDS011;31040;51.622;10.420;2022-10-17T11:55:56;2.35;;;2.15;;
45296;SDS011;31040;51.622;10.420;2022-10-17T12:06:58;3.72;;;2.30;;
45296;SDS011;31040;51.622;10.420;2022-10-17T12:09:45;2.90;;;1.90;;
45296;SDS011;31040;51.622;10.420;2022-10-17T12:12:25;3.28;;;2.55;;
45296;SDS011;31040;51.622;10.420;2022-10-17T12:14:54;3.60;;;2.53;;
45296;SDS011;31040;51.622;10.420;2022-10-17T12:25:48;5.50;;;2.20;;
45296;SDS011;31040;51.622;10.420;2022-10-17T12:30:51;2.90;;;2.05;;
45296;SDS011;31040;51.622;10.420;2022-10-17T12:33:32;3.33;;;2.13;;
45296;SDS011;31040;51.622;10.420;2022-10-17T12:54:37;3.53;;;2.20;;
45296;SDS011;31040;51.622;10.420;2022-10-17T13:00:04;2.25;;;1.98;;
45296;SDS011;31040;51.622;10.420;2022-10-17T13:02:38;2.38;;;2.00;;
45296;SDS011;31040;51.622;10.420;2022-10-17T13:05:10;5.88;;;3.67;;
45296;SDS011;31040;51.622;10.420;2022-10-17T13:07:40;7.97;;;4.25;;
45296;SDS011;31040;51.622;10.420;2022-10-17T13:10:21;5.60;;;1.98;;
45296;SDS011;31040;51.622;10.420;2022-10-17T13:12:49;4.07;;;1.85;;
45296;SDS011;31040;51.622;10.420;2022-10-17T13:15:18;3.83;;;1.77;;
45296;SDS011;31040;51.622;10.420;2022-10-17T13:17:53;4.68;;;2.33;;
45296;SDS011;31040;51.622;10.420;2022-10-17T13:20:22;6.00;;;1.90;;
45296;SDS011;31040;51.622;10.420;2022-10-17T13:22:56;5.15;;;1.88;;
45296;SDS011;31040;51.622;10.420;2022-10-17T13:25:24;6.40;;;2.10;;
45296;SDS011;31040;51.622;10.420;2022-10-17T13:28:02;2.65;;;1.77;;
45296;SDS011;31040;51.622;10.420;2022-10-17T13:30:31;2.65;;;1.80;;
45296;SDS011;31040;51.622;10.420;2022-10-17T13:32:59;4.72;;;1.90;;
45296;SDS011;31040;51.622;10.420;2022-10-17T13:35:30;3.17;;;1.70;;
45296;SDS011;31040;51.622;10.420;2022-10-17T13:38:25;3.00;;;1.90;;
45296;SDS011;31040;51.622;10.420;2022-10-17T13:40:54;3.72;;;1.92;;
45296;SDS011;31040;51.622;10.420;2022-10-17T13:43:36;3.83;;;1.63;;
45296;SDS011;31040;51.622;10.420;2022-10-17T13:46:04;2.38;;;1.95;;
45296;SDS011;31040;51.622;10.420;2022-10-17T13:48:51;3.83;;;1.80;;
45296;SDS011;31040;51.622;10.420;2022-10-17T13:51:19;6.50;;;2.30;;
45296;SDS011;31040;51.622;10.420;2022-10-17T13:53:46;1.70;;;1.60;;
45296;SDS011;31040;51.622;10.420;2022-10-17T13:56:24;3.30;;;1.73;;
45296;SDS011;31040;51.622;10.420;2022-10-17T13:58:58;2.33;;;1.40;;
45296;SDS011;31040;51.622;10.420;2022-10-17T14:01:26;1.92;;;1.67;;
45296;SDS011;31040;51.622;10.420;2022-10-17T14:03:54;3.95;;;2.10;;
45296;SDS011;31040;51.622;10.420;2022-10-17T14:06:34;2.53;;;1.38;;
45296;SDS011;31040;51.622;10.420;2022-10-17T14:09:45;4.05;;;1.50;;
45296;SDS011;31040;51.622;10.420;2022-10-17T14:12:08;3.25;;;1.48;;
45296;SDS011;31040;51.622;10.420;2022-10-17T14:14:38;4.70;;;2.92;;
45296;SDS011;31040;51.622;10.420;2022-10-17T14:17:27;6.43;;;3.28;;
45296;SDS011;31040;51.622;10.420;2022-10-17T14:19:56;4.95;;;2.33;;
45296;SDS011;31040;51.622;10.420;2022-10-17T14:22:44;4.75;;;2.47;;
45296;SDS011;31040;51.622;10.420;2022-10-17T14:28:16;3.45;;;1.80;;
45296;SDS011;31040;51.622;10.420;2022-10-17T14:30:47;4.70;;;1.70;;
45296;SDS011;31040;51.622;10.420;2022-10-17T14:33:26;3.13;;;1.88;;
45296;SDS011;31040;51.622;10.420;2022-10-17T14:35:55;4.85;;;1.58;;
45296;SDS011;31040;51.622;10.420;2022-10-17T14:38:23;3.10;;;1.60;;
45296;SDS011;31040;51.622;10.420;2022-10-17T14:40:51;3.45;;;2.00;;
45296;SDS011;31040;51.622;10.420;2022-10-17T14:43:34;3.07;;;1.47;;
45296;SDS011;31040;51.622;10.420;2022-10-17T14:46:02;4.05;;;1.77;;
45296;SDS011;31040;51.622;10.420;2022-10-17T14:48:30;3.50;;;2.00;;
45296;SDS011;31040;51.622;10.420;2022-10-17T14:51:10;4.70;;;2.00;;
45296;SDS011;31040;51.622;10.420;2022-10-17T14:53:40;2.85;;;1.60;;
45296;SDS011;31040;51.622;10.420;2022-10-17T14:56:20;4.22;;;2.10;;
45296;SDS011;31040;51.622;10.420;2022-10-17T14:58:48;2.83;;;1.63;;
45296;SDS011;31040;51.622;10.420;2022-10-17T15:01:15;3.83;;;2.17;;
45296;SDS011;31040;51.622;10.420;2022-10-17T15:03:43;2.08;;;1.75;;
45296;SDS011;31040;51.622;10.420;2022-10-17T15:08:44;3.30;;;1.65;;
45296;SDS011;31040;51.622;10.420;2022-10-17T15:11:11;2.35;;;1.85;;
45296;SDS011;31040;51.622;10.420;2022-10-17T15:13:39;3.47;;;1.98;;
45296;SDS011;31040;51.622;10.420;2022-10-17T15:16:23;1.92;;;1.73;;
45296;SDS011;31040;51.622;10.420;2022-10-17T15:18:51;3.28;;;2.00;;
45296;SDS011;31040;51.622;10.420;2022-10-17T15:21:20;3.45;;;2.35;;
45296;SDS011;31040;51.622;10.420;2022-10-17T15:24:05;3.15;;;1.95;;
45296;SDS011;31040;51.622;10.420;2022-10-17T15:26:33;4.53;;;1.80;;
45296;SDS011;31040;51.622;10.420;2022-10-17T15:29:01;3.22;;;1.48;;
45296;SDS011;31040;51.622;10.420;2022-10-17T15:31:29;3.40;;;1.90;;
45296;SDS011;31040;51.622;10.420;2022-10-17T15:33:57;3.10;;;1.55;;
45296;SDS011;31040;51.622;10.420;2022-10-17T15:36:25;2.45;;;1.65;;
45296;SDS011;31040;51.622;10.420;2022-10-17T15:38:54;3.28;;;2.15;;
45296;SDS011;31040;51.622;10.420;2022-10-17T15:41:23;3.25;;;2.05;;
45296;SDS011;31040;51.622;10.420;2022-10-17T15:43:51;4.38;;;2.28;;
45296;SDS011;31040;51.622;10.420;2022-10-17T15:46:22;3.97;;;2.15;;
45296;SDS011;31040;51.622;10.420;2022-10-17T15:48:54;3.35;;;2.00;;
45296;SDS011;31040;51.622;10.420;2022-10-17T15:51:22;2.28;;;1.55;;
45296;SDS011;31040;51.622;10.420;2022-10-17T15:53:49;2.42;;;1.80;;
45296;SDS011;31040;51.622;10.420;2022-10-17T15:58:47;5.78;;;2.53;;
45296;SDS011;31040;51.622;10.420;2022-10-17T16:01:22;5.68;;;2.55;;
45296;SDS011;31040;51.622;10.420;2022-10-17T16:03:50;5.82;;;2.40;;
45296;SDS011;31040;51.622;10.420;2022-10-17T16:06:18;2.90;;;1.75;;
45296;SDS011;31040;51.622;10.420;2022-10-17T16:08:46;7.70;;;2.38;;
45296;SDS011;31040;51.622;10.420;2022-10-17T16:11:26;8.10;;;2.20;;
45296;SDS011;31040;51.622;10.420;2022-10-17T16:13:54;6.57;;;2.30;;
45296;SDS011;31040;51.622;10.420;2022-10-17T16:16:23;8.77;;;2.65;;
45296;SDS011;31040;51.622;10.420;2022-10-17T16:18:50;4.90;;;2.30;;
45296;SDS011;31040;51.622;10.420;2022-10-17T16:21:18;3.03;;;1.83;;
45296;SDS011;31040;51.622;10.420;2022-10-17T16:23:46;4.63;;;2.10;;
45296;SDS011;31040;51.622;10.420;2022-10-17T16:26:13;4.90;;;2.42;;
45296;SDS011;31040;51.622;10.420;2022-10-17T16:28:41;6.90;;;2.83;;
45296;SDS011;31040;51.622;10.420;2022-10-17T16:31:17;5.18;;;2.40;;
45296;SDS011;31040;51.622;10.420;2022-10-17T16:33:45;8.68;;;2.88;;
45296;SDS011;31040;51.622;10.420;2022-10-17T16:36:34;12.77;;;3.33;;
45296;SDS011;31040;51.622;10.420;2022-10-17T16:39:02;23.42;;;3.58;;
45296;SDS011;31040;51.622;10.420;2022-10-17T16:41:30;20.27;;;3.38;;
45296;SDS011;31040;51.622;10.420;2022-10-17T16:43:58;12.90;;;3.35;;
45296;SDS011;31040;51.622;10.420;2022-10-17T16:46:27;9.52;;;3.28;;
45296;SDS011;31040;51.622;10.420;2022-10-17T16:48:55;17.20;;;3.65;;
45296;SDS011;31040;51.622;10.420;2022-10-17T16:51:22;12.60;;;3.55;;
45296;SDS011;31040;51.622;10.420;2022-10-17T16:53:50;13.27;;;3.53;;
45296;SDS011;31040;51.622;10.420;2022-10-17T16:56:21;9.10;;;3.08;;
45296;SDS011;31040;51.622;10.420;2022-10-17T16:58:48;11.48;;;3.28;;
45296;SDS011;31040;51.622;10.420;2022-10-17T17:01:17;6.80;;;3.00;;
45296;SDS011;31040;51.622;10.420;2022-10-17T17:03:45;6.28;;;2.78;;
45296;SDS011;31040;51.622;10.420;2022-10-17T17:06:14;4.15;;;3.15;;
45296;SDS011;31040;51.622;10.420;2022-10-17T17:08:42;3.95;;;2.63;;